Check out our new PWSWeather beta!
PWSweather.com
Personal Weather Stations
Station Observations

PoschiavoCH

Lat: 46.31962499999999, Lon: 10.066551000000004

Elevation: 3517

Station Type: WH 1080

http://www.meteoposchiavo.com

High Low Average
Temperature 60.0°F15.6°C 28.0°F-2.2°C 43.7°F6.5°C
Dew Point 35.9°F2.2°C 15.6°F-9.1°C 27.1°F-2.7°C
Winds 4.6 mph 7.4 kmh Calm Calm 1.0 mph NNE1.6 kmh NNE
Wind Gusts 8.1 mph13.0 kmh -- 1.0 mph1.6 kmh
Humidity 81% 28% 54%
Pressure 26.67 in903.2 mb 26.48 in896.7 mb -
Precipitation 0.00 in0.0 mm - -
Hour Temp Dew Point Humidity Winds Wind Gusts Pressure Precip Precip Rate Daily Precip Total
12:00 AM 34.0°F1.1°C 18.2°F-7.7°C 52% Calm Calm -- 26.64 in902.1 mb - 0.00 in0.0 mm 0.00 in0.0 mm
12:10 AM 34.0°F1.1°C 18.6°F-7.4°C 53% Calm Calm -- 26.63 in901.8 mb - 0.00 in0.0 mm 0.00 in0.0 mm
12:15 AM 33.0°F0.6°C 19.8°F-6.8°C 58% Calm Calm -- 26.64 in902.1 mb - 0.00 in0.0 mm 0.00 in0.0 mm
12:20 AM 33.0°F0.6°C 19.8°F-6.8°C 58% Calm Calm -- 26.64 in902.1 mb - 0.00 in0.0 mm 0.00 in0.0 mm
12:25 AM 33.0°F0.6°C 19.0°F-7.2°C 56% Calm Calm -- 26.64 in902.1 mb - 0.00 in0.0 mm 0.00 in0.0 mm
12:30 AM 33.0°F0.6°C 19.4°F-7.0°C 57% Calm Calm -- 26.64 in902.1 mb - 0.00 in0.0 mm 0.00 in0.0 mm
12:35 AM 33.0°F0.6°C 19.8°F-6.8°C 58% Calm Calm -- 26.64 in902.1 mb - 0.00 in0.0 mm 0.00 in0.0 mm
12:40 AM 33.0°F0.6°C 19.8°F-6.8°C 58% Calm Calm -- 26.64 in902.1 mb - 0.00 in0.0 mm 0.00 in0.0 mm
12:45 AM 33.0°F0.6°C 20.2°F-6.6°C 59% Calm Calm -- 26.64 in902.1 mb - 0.00 in0.0 mm 0.00 in0.0 mm
12:50 AM 32.0°F0.0°C 18.9°F-7.3°C 58% Calm Calm -- 26.64 in902.1 mb - 0.00 in0.0 mm 0.00 in0.0 mm
12:55 AM 32.0°F0.0°C 19.3°F-7.1°C 59% Calm Calm -- 26.64 in902.1 mb - 0.00 in0.0 mm 0.00 in0.0 mm
01:00 AM 32.0°F0.0°C 20.1°F-6.6°C 61% Calm Calm -- 26.63 in901.8 mb - 0.00 in0.0 mm 0.00 in0.0 mm
01:10 AM 32.0°F0.0°C 21.6°F-5.8°C 65% Calm Calm -- 26.64 in902.1 mb - 0.00 in0.0 mm 0.00 in0.0 mm
01:15 AM 32.0°F0.0°C 21.2°F-6.0°C 64% Calm Calm -- 26.64 in902.1 mb - 0.00 in0.0 mm 0.00 in0.0 mm
01:20 AM 32.0°F0.0°C 20.4°F-6.4°C 62% Calm Calm -- 26.64 in902.1 mb - 0.00 in0.0 mm 0.00 in0.0 mm
01:25 AM 32.0°F0.0°C 20.1°F-6.6°C 61% Calm Calm -- 26.64 in902.1 mb - 0.00 in0.0 mm 0.00 in0.0 mm
01:30 AM 32.0°F0.0°C 21.2°F-6.0°C 64% Calm Calm -- 26.64 in902.1 mb - 0.00 in0.0 mm 0.00 in0.0 mm
01:35 AM 32.0°F0.0°C 20.4°F-6.4°C 62% Calm Calm -- 26.64 in902.1 mb - 0.00 in0.0 mm 0.00 in0.0 mm
01:40 AM 32.0°F0.0°C 20.4°F-6.4°C 62% Calm Calm -- 26.64 in902.1 mb - 0.00 in0.0 mm 0.00 in0.0 mm
01:45 AM 32.0°F0.0°C 19.7°F-6.8°C 60% Calm Calm -- 26.64 in902.1 mb - 0.00 in0.0 mm 0.00 in0.0 mm
01:50 AM 32.0°F0.0°C 19.7°F-6.8°C 60% Calm Calm -- 26.64 in902.1 mb - 0.00 in0.0 mm 0.00 in0.0 mm
01:55 AM 32.0°F0.0°C 19.7°F-6.8°C 60% Calm Calm -- 26.65 in902.5 mb - 0.00 in0.0 mm 0.00 in0.0 mm
02:00 AM 32.0°F0.0°C 19.7°F-6.8°C 60% Calm Calm -- 26.64 in902.1 mb - 0.00 in0.0 mm 0.00 in0.0 mm
02:10 AM 31.0°F-0.6°C 20.2°F-6.6°C 64% Calm Calm -- 26.65 in902.5 mb - 0.00 in0.0 mm 0.00 in0.0 mm
02:15 AM 31.0°F-0.6°C 19.9°F-6.7°C 63% Calm Calm -- 26.64 in902.1 mb - 0.00 in0.0 mm 0.00 in0.0 mm
02:20 AM 30.2°F-1.0°C 19.8°F-6.8°C 65% Calm Calm -- 26.64 in902.1 mb - 0.00 in0.0 mm 0.00 in0.0 mm
02:25 AM 30.0°F-1.1°C 19.7°F-6.8°C 65% Calm Calm -- 26.64 in902.1 mb - 0.00 in0.0 mm 0.00 in0.0 mm
02:30 AM 30.0°F-1.1°C 19.3°F-7.1°C 64% Calm Calm -- 26.65 in902.5 mb - 0.00 in0.0 mm 0.00 in0.0 mm
02:35 AM 30.0°F-1.1°C 19.3°F-7.1°C 64% Calm Calm -- 26.66 in902.8 mb - 0.00 in0.0 mm 0.00 in0.0 mm
02:40 AM 31.0°F-0.6°C 20.2°F-6.6°C 64% Calm Calm -- 26.65 in902.5 mb - 0.00 in0.0 mm 0.00 in0.0 mm
02:45 AM 30.0°F-1.1°C 21.1°F-6.1°C 69% Calm Calm -- 26.65 in902.5 mb - 0.00 in0.0 mm 0.00 in0.0 mm
02:50 AM 30.0°F-1.1°C 19.3°F-7.1°C 64% Calm Calm -- 26.66 in902.8 mb - 0.00 in0.0 mm 0.00 in0.0 mm
02:55 AM 30.0°F-1.1°C 19.3°F-7.1°C 64% Calm Calm -- 26.66 in902.8 mb - 0.00 in0.0 mm 0.00 in0.0 mm
03:00 AM 30.0°F-1.1°C 19.3°F-7.1°C 64% Calm Calm -- 26.66 in902.8 mb - 0.00 in0.0 mm 0.00 in0.0 mm
03:10 AM 29.0°F-1.7°C 19.8°F-6.8°C 68% Calm Calm -- 26.66 in902.8 mb - 0.00 in0.0 mm 0.00 in0.0 mm
03:15 AM 29.0°F-1.7°C 19.1°F-7.2°C 66% Calm Calm -- 26.66 in902.8 mb - 0.00 in0.0 mm 0.00 in0.0 mm
03:20 AM 30.0°F-1.1°C 19.7°F-6.8°C 65% Calm Calm -- 26.66 in902.8 mb - 0.00 in0.0 mm 0.00 in0.0 mm
03:25 AM 30.0°F-1.1°C 19.3°F-7.1°C 64% Calm Calm -- 26.66 in902.8 mb - 0.00 in0.0 mm 0.00 in0.0 mm
03:30 AM 30.0°F-1.1°C 18.9°F-7.3°C 63% Calm Calm -- 26.65 in902.5 mb - 0.00 in0.0 mm 0.00 in0.0 mm
03:35 AM 30.0°F-1.1°C 18.9°F-7.3°C 63% Calm Calm -- 26.65 in902.5 mb - 0.00 in0.0 mm 0.00 in0.0 mm
03:40 AM 30.0°F-1.1°C 21.1°F-6.1°C 69% Calm Calm -- 26.66 in902.8 mb - 0.00 in0.0 mm 0.00 in0.0 mm
03:45 AM 29.0°F-1.7°C 20.1°F-6.6°C 69% Calm Calm -- 26.66 in902.8 mb - 0.00 in0.0 mm 0.00 in0.0 mm
03:50 AM 29.0°F-1.7°C 18.3°F-7.6°C 64% Calm Calm -- 26.66 in902.8 mb - 0.00 in0.0 mm 0.00 in0.0 mm
03:55 AM 30.0°F-1.1°C 19.7°F-6.8°C 65% Calm Calm -- 26.66 in902.8 mb - 0.00 in0.0 mm 0.00 in0.0 mm
04:00 AM 29.0°F-1.7°C 19.4°F-7.0°C 67% Calm Calm -- 26.66 in902.8 mb - 0.00 in0.0 mm 0.00 in0.0 mm
04:10 AM 29.0°F-1.7°C 19.1°F-7.2°C 66% Calm Calm -- 26.66 in902.8 mb - 0.00 in0.0 mm 0.00 in0.0 mm
04:15 AM 29.0°F-1.7°C 20.1°F-6.6°C 69% Calm Calm -- 26.66 in902.8 mb - 0.00 in0.0 mm 0.00 in0.0 mm
04:20 AM 29.0°F-1.7°C 18.7°F-7.4°C 65% Calm Calm -- 26.66 in902.8 mb - 0.00 in0.0 mm 0.00 in0.0 mm
04:25 AM 30.0°F-1.1°C 21.4°F-5.9°C 70% Calm Calm -- 26.66 in902.8 mb - 0.00 in0.0 mm 0.00 in0.0 mm
04:30 AM 29.0°F-1.7°C 20.8°F-6.2°C 71% Calm Calm -- 26.66 in902.8 mb - 0.00 in0.0 mm 0.00 in0.0 mm
04:35 AM 29.0°F-1.7°C 19.4°F-7.0°C 67% Calm Calm -- 26.67 in903.2 mb - 0.00 in0.0 mm 0.00 in0.0 mm
04:40 AM 29.0°F-1.7°C 19.4°F-7.0°C 67% Calm Calm -- 26.67 in903.2 mb - 0.00 in0.0 mm 0.00 in0.0 mm
04:45 AM 30.0°F-1.1°C 19.3°F-7.1°C 64% Calm Calm -- 26.66 in902.8 mb - 0.00 in0.0 mm 0.00 in0.0 mm
04:50 AM 29.0°F-1.7°C 20.1°F-6.6°C 69% Calm Calm -- 26.66 in902.8 mb - 0.00 in0.0 mm 0.00 in0.0 mm
04:55 AM 28.0°F-2.2°C 19.5°F-6.9°C 70% Calm Calm -- 26.66 in902.8 mb - 0.00 in0.0 mm 0.00 in0.0 mm
05:00 AM 29.0°F-1.7°C 19.1°F-7.2°C 66% Calm Calm -- 26.66 in902.8 mb - 0.00 in0.0 mm 0.00 in0.0 mm
05:10 AM 29.0°F-1.7°C 18.7°F-7.4°C 65% Calm Calm -- 26.66 in902.8 mb - 0.00 in0.0 mm 0.00 in0.0 mm
05:15 AM 29.0°F-1.7°C 19.1°F-7.2°C 66% Calm Calm -- 26.66 in902.8 mb - 0.00 in0.0 mm 0.00 in0.0 mm
05:20 AM 29.0°F-1.7°C 19.1°F-7.2°C 66% Calm Calm -- 26.66 in902.8 mb - 0.00 in0.0 mm 0.00 in0.0 mm
05:25 AM 29.0°F-1.7°C 20.1°F-6.6°C 69% Calm Calm -- 26.66 in902.8 mb - 0.00 in0.0 mm 0.00 in0.0 mm
05:30 AM 29.0°F-1.7°C 20.1°F-6.6°C 69% Calm Calm -- 26.67 in903.2 mb - 0.00 in0.0 mm 0.00 in0.0 mm
05:35 AM 29.0°F-1.7°C 19.4°F-7.0°C 67% Calm Calm -- 26.66 in902.8 mb - 0.00 in0.0 mm 0.00 in0.0 mm
05:40 AM 29.0°F-1.7°C 19.1°F-7.2°C 66% Calm Calm -- 26.66 in902.8 mb - 0.00 in0.0 mm 0.00 in0.0 mm
05:45 AM 29.0°F-1.7°C 21.1°F-6.1°C 72% Calm Calm -- 26.67 in903.2 mb - 0.00 in0.0 mm 0.00 in0.0 mm
05:50 AM 29.0°F-1.7°C 19.8°F-6.8°C 68% Calm Calm -- 26.67 in903.2 mb - 0.00 in0.0 mm 0.00 in0.0 mm
05:55 AM 29.0°F-1.7°C 19.4°F-7.0°C 67% Calm Calm -- 26.67 in903.2 mb - 0.00 in0.0 mm 0.00 in0.0 mm
06:00 AM 29.0°F-1.7°C 21.4°F-5.9°C 73% Calm Calm -- 26.66 in902.8 mb - 0.00 in0.0 mm 0.00 in0.0 mm
06:10 AM 29.0°F-1.7°C 19.1°F-7.2°C 66% Calm Calm -- 26.66 in902.8 mb - 0.00 in0.0 mm 0.00 in0.0 mm
06:15 AM 29.0°F-1.7°C 19.1°F-7.2°C 66% Calm Calm -- 26.66 in902.8 mb - 0.00 in0.0 mm 0.00 in0.0 mm
06:20 AM 29.0°F-1.7°C 19.4°F-7.0°C 67% Calm Calm -- 26.66 in902.8 mb - 0.00 in0.0 mm 0.00 in0.0 mm
06:25 AM 29.0°F-1.7°C 21.1°F-6.1°C 72% Calm Calm -- 26.66 in902.8 mb - 0.00 in0.0 mm 0.00 in0.0 mm
06:30 AM 29.0°F-1.7°C 19.8°F-6.8°C 68% Calm Calm -- 26.66 in902.8 mb - 0.00 in0.0 mm 0.00 in0.0 mm
06:35 AM 29.6°F-1.3°C 20.4°F-6.4°C 68% Calm Calm -- 26.66 in902.8 mb - 0.00 in0.0 mm 0.00 in0.0 mm
06:40 AM 30.0°F-1.1°C 20.7°F-6.3°C 68% Calm Calm -- 26.66 in902.8 mb - 0.00 in0.0 mm 0.00 in0.0 mm
06:45 AM 30.0°F-1.1°C 21.4°F-5.9°C 70% Calm Calm -- 26.67 in903.2 mb - 0.00 in0.0 mm 0.00 in0.0 mm
06:50 AM 29.0°F-1.7°C 19.1°F-7.2°C 66% Calm Calm -- 26.66 in902.8 mb - 0.00 in0.0 mm 0.00 in0.0 mm
06:55 AM 30.0°F-1.1°C 19.7°F-6.8°C 65% Calm Calm -- 26.66 in902.8 mb - 0.00 in0.0 mm 0.00 in0.0 mm
07:00 AM 30.0°F-1.1°C 20.4°F-6.4°C 67% Calm Calm -- 26.66 in902.8 mb - 0.00 in0.0 mm 0.00 in0.0 mm
07:10 AM 30.0°F-1.1°C 20.0°F-6.7°C 66% Calm Calm -- 26.66 in902.8 mb - 0.00 in0.0 mm 0.00 in0.0 mm
07:15 AM 30.0°F-1.1°C 19.3°F-7.1°C 64% Calm Calm -- 26.66 in902.8 mb - 0.00 in0.0 mm 0.00 in0.0 mm
07:20 AM 30.0°F-1.1°C 20.4°F-6.4°C 67% Calm Calm -- 26.66 in902.8 mb - 0.00 in0.0 mm 0.00 in0.0 mm
07:25 AM 32.0°F0.0°C 20.4°F-6.4°C 62% Calm Calm -- 26.66 in902.8 mb - 0.00 in0.0 mm 0.00 in0.0 mm
07:30 AM 32.0°F0.0°C 21.2°F-6.0°C 64% Calm Calm -- 26.66 in902.8 mb - 0.00 in0.0 mm 0.00 in0.0 mm
07:35 AM 31.6°F-0.2°C 20.8°F-6.2°C 64% Calm Calm -- 26.66 in902.8 mb - 0.00 in0.0 mm 0.00 in0.0 mm
07:40 AM 31.0°F-0.6°C 20.2°F-6.6°C 64% Calm Calm -- 26.67 in903.2 mb - 0.00 in0.0 mm 0.00 in0.0 mm
07:45 AM 32.0°F0.0°C 21.2°F-6.0°C 64% Calm Calm -- 26.65 in902.5 mb - 0.00 in0.0 mm 0.00 in0.0 mm
07:50 AM 33.0°F0.6°C 20.6°F-6.3°C 60% Calm Calm -- 26.66 in902.8 mb - 0.00 in0.0 mm 0.00 in0.0 mm
07:55 AM 35.0°F1.7°C 21.3°F-5.9°C 57% Calm Calm -- 26.65 in902.5 mb - 0.00 in0.0 mm 0.00 in0.0 mm
08:00 AM 36.0°F2.2°C 20.5°F-6.4°C 53% Calm Calm -- 26.64 in902.1 mb - 0.00 in0.0 mm 0.00 in0.0 mm
08:10 AM 37.0°F2.8°C 16.5°F-8.6°C 43% Calm Calm -- 26.64 in902.1 mb - 0.00 in0.0 mm 0.00 in0.0 mm
08:15 AM 38.0°F3.3°C 20.0°F-6.7°C 48% Calm Calm -- 26.63 in901.8 mb - 0.00 in0.0 mm 0.00 in0.0 mm
08:20 AM 38.0°F3.3°C 21.0°F-6.1°C 50% Calm Calm -- 26.63 in901.8 mb - 0.00 in0.0 mm 0.00 in0.0 mm
08:25 AM 39.0°F3.9°C 21.4°F-5.9°C 49% Calm Calm -- 26.63 in901.8 mb - 0.00 in0.0 mm 0.00 in0.0 mm
08:30 AM 40.3°F4.6°C 22.6°F-5.2°C 49% Calm Calm -- 26.62 in901.5 mb - 0.00 in0.0 mm 0.00 in0.0 mm
08:35 AM 41.0°F5.0°C 17.9°F-7.8°C 39% Calm Calm -- 26.62 in901.5 mb - 0.00 in0.0 mm 0.00 in0.0 mm
08:40 AM 42.0°F5.6°C 18.2°F-7.7°C 38% 1.2 mph N1.9 kmh N 1.2 mph1.9 kmh 26.62 in901.5 mb - 0.00 in0.0 mm 0.00 in0.0 mm
08:45 AM 42.0°F5.6°C 15.6°F-9.1°C 34% Calm Calm -- 26.61 in901.1 mb - 0.00 in0.0 mm 0.00 in0.0 mm
08:50 AM 43.0°F6.1°C 15.8°F-9.0°C 33% Calm Calm -- 26.61 in901.1 mb - 0.00 in0.0 mm 0.00 in0.0 mm
08:55 AM 43.6°F6.4°C 16.4°F-8.7°C 33% Calm Calm -- 26.61 in901.1 mb - 0.00 in0.0 mm 0.00 in0.0 mm
09:00 AM 44.0°F6.7°C 16.7°F-8.5°C 33% Calm Calm -- 26.61 in901.1 mb - 0.00 in0.0 mm 0.00 in0.0 mm
09:10 AM 47.0°F8.3°C 18.6°F-7.4°C 32% Calm Calm -- 26.60 in900.8 mb - 0.00 in0.0 mm 0.00 in0.0 mm
09:15 AM 47.0°F8.3°C 17.9°F-7.8°C 31% Calm Calm -- 26.60 in900.8 mb - 0.00 in0.0 mm 0.00 in0.0 mm
09:20 AM 47.5°F8.6°C 17.5°F-8.1°C 30% Calm Calm -- 26.59 in900.4 mb - 0.00 in0.0 mm 0.00 in0.0 mm
09:25 AM 48.0°F8.9°C 16.4°F-8.7°C 28% Calm Calm -- 26.59 in900.4 mb - 0.00 in0.0 mm 0.00 in0.0 mm
09:30 AM 49.0°F9.4°C 22.5°F-5.3°C 35% Calm Calm -- 26.59 in900.4 mb - 0.00 in0.0 mm 0.00 in0.0 mm
09:35 AM 50.0°F10.0°C 18.1°F-7.7°C 28% Calm Calm -- 26.59 in900.4 mb - 0.00 in0.0 mm 0.00 in0.0 mm
09:40 AM 49.0°F9.4°C 18.9°F-7.3°C 30% Calm Calm 1.2 mph1.9 kmh 26.59 in900.4 mb - 0.00 in0.0 mm 0.00 in0.0 mm
09:45 AM 49.7°F9.8°C 19.5°F-6.9°C 30% Calm Calm 1.2 mph1.9 kmh 26.59 in900.4 mb - 0.00 in0.0 mm 0.00 in0.0 mm
09:50 AM 51.0°F10.6°C 20.6°F-6.3°C 30% 1.2 mph N1.9 kmh N 1.2 mph1.9 kmh 26.58 in900.1 mb - 0.00 in0.0 mm 0.00 in0.0 mm
09:55 AM 51.0°F10.6°C 19.0°F-7.2°C 28% Calm Calm 1.2 mph1.9 kmh 26.58 in900.1 mb - 0.00 in0.0 mm 0.00 in0.0 mm
10:00 AM 51.0°F10.6°C 21.4°F-5.9°C 31% 1.2 mph N1.9 kmh N 1.2 mph1.9 kmh 26.57 in899.8 mb - 0.00 in0.0 mm 0.00 in0.0 mm
10:10 AM 51.0°F10.6°C 23.6°F-4.7°C 34% Calm Calm -- 26.57 in899.8 mb - 0.00 in0.0 mm 0.00 in0.0 mm
10:15 AM 51.0°F10.6°C 21.4°F-5.9°C 31% 1.2 mph N1.9 kmh N 2.3 mph3.7 kmh 26.57 in899.8 mb - 0.00 in0.0 mm 0.00 in0.0 mm
10:20 AM 52.0°F11.1°C 22.3°F-5.4°C 31% 2.3 mph NNE3.7 kmh NNE 2.3 mph3.7 kmh 26.57 in899.8 mb - 0.00 in0.0 mm 0.00 in0.0 mm
10:25 AM 51.0°F10.6°C 24.3°F-4.3°C 35% 2.3 mph N3.7 kmh N 2.3 mph3.7 kmh 26.57 in899.8 mb - 0.00 in0.0 mm 0.00 in0.0 mm
10:30 AM 51.0°F10.6°C 25.0°F-3.9°C 36% 2.3 mph NE3.7 kmh NE 3.5 mph5.6 kmh 26.57 in899.8 mb - 0.00 in0.0 mm 0.00 in0.0 mm
10:35 AM 51.0°F10.6°C 25.0°F-3.9°C 36% 2.3 mph ENE3.7 kmh ENE 3.5 mph5.6 kmh 26.57 in899.8 mb - 0.00 in0.0 mm 0.00 in0.0 mm
10:40 AM 52.0°F11.1°C 25.2°F-3.8°C 35% 1.2 mph N1.9 kmh N 1.2 mph1.9 kmh 26.57 in899.8 mb - 0.00 in0.0 mm 0.00 in0.0 mm
10:45 AM 52.0°F11.1°C 25.2°F-3.8°C 35% Calm Calm 1.2 mph1.9 kmh 26.56 in899.4 mb - 0.00 in0.0 mm 0.00 in0.0 mm
10:50 AM 53.0°F11.7°C 25.3°F-3.7°C 34% 1.2 mph N1.9 kmh N 2.3 mph3.7 kmh 26.57 in899.8 mb - 0.00 in0.0 mm 0.00 in0.0 mm
10:55 AM 53.0°F11.7°C 26.0°F-3.3°C 35% 1.2 mph N1.9 kmh N 2.3 mph3.7 kmh 26.57 in899.8 mb - 0.00 in0.0 mm 0.00 in0.0 mm
11:00 AM 53.0°F11.7°C 28.0°F-2.2°C 38% Calm Calm 1.2 mph1.9 kmh 26.57 in899.8 mb - 0.00 in0.0 mm 0.00 in0.0 mm
11:10 AM 55.0°F12.8°C 27.1°F-2.7°C 34% 2.3 mph N3.7 kmh N 2.3 mph3.7 kmh 26.56 in899.4 mb - 0.00 in0.0 mm 0.00 in0.0 mm
11:15 AM 53.0°F11.7°C 26.0°F-3.3°C 35% 2.3 mph NNE3.7 kmh NNE 2.3 mph3.7 kmh 26.56 in899.4 mb - 0.00 in0.0 mm 0.00 in0.0 mm
11:20 AM 53.0°F11.7°C 26.0°F-3.3°C 35% 2.3 mph NNE3.7 kmh NNE 2.3 mph3.7 kmh 26.56 in899.4 mb - 0.00 in0.0 mm 0.00 in0.0 mm
11:25 AM 53.0°F11.7°C 28.7°F-1.8°C 39% 2.3 mph NNE3.7 kmh NNE 3.5 mph5.6 kmh 26.55 in899.1 mb - 0.00 in0.0 mm 0.00 in0.0 mm
11:30 AM 54.0°F12.2°C 28.9°F-1.7°C 38% 1.2 mph NE1.9 kmh NE 2.3 mph3.7 kmh 26.55 in899.1 mb - 0.00 in0.0 mm 0.00 in0.0 mm
11:35 AM 54.0°F12.2°C 28.3°F-2.1°C 37% 2.3 mph NE3.7 kmh NE 3.5 mph5.6 kmh 26.55 in899.1 mb - 0.00 in0.0 mm 0.00 in0.0 mm
11:40 AM 54.0°F12.2°C 27.6°F-2.4°C 36% Calm Calm 3.5 mph5.6 kmh 26.55 in899.1 mb - 0.00 in0.0 mm 0.00 in0.0 mm
11:45 AM 54.0°F12.2°C 26.9°F-2.8°C 35% Calm Calm 1.2 mph1.9 kmh 26.55 in899.1 mb - 0.00 in0.0 mm 0.00 in0.0 mm
11:50 AM 55.0°F12.8°C 27.8°F-2.3°C 35% 1.2 mph N1.9 kmh N 2.3 mph3.7 kmh 26.55 in899.1 mb - 0.00 in0.0 mm 0.00 in0.0 mm
11:55 AM 54.0°F12.2°C 26.2°F-3.2°C 34% 2.3 mph N3.7 kmh N 3.5 mph5.6 kmh 26.55 in899.1 mb - 0.00 in0.0 mm 0.00 in0.0 mm
12:00 PM 54.0°F12.2°C 29.6°F-1.3°C 39% 1.2 mph N1.9 kmh N 2.3 mph3.7 kmh 26.54 in898.7 mb - 0.00 in0.0 mm 0.00 in0.0 mm
12:10 PM 54.0°F12.2°C 30.2°F-1.0°C 40% 2.3 mph N3.7 kmh N 3.5 mph5.6 kmh 26.55 in899.1 mb - 0.00 in0.0 mm 0.00 in0.0 mm
12:15 PM 54.0°F12.2°C 30.8°F-0.7°C 41% 2.3 mph NNE3.7 kmh NNE 3.5 mph5.6 kmh 26.54 in898.7 mb - 0.00 in0.0 mm 0.00 in0.0 mm
12:20 PM 54.0°F12.2°C 31.4°F-0.3°C 42% 2.3 mph NNE3.7 kmh NNE 2.3 mph3.7 kmh 26.55 in899.1 mb - 0.00 in0.0 mm 0.00 in0.0 mm
12:25 PM 55.0°F12.8°C 32.3°F0.2°C 42% 3.5 mph NE5.6 kmh NE 5.8 mph9.3 kmh 26.54 in898.7 mb - 0.00 in0.0 mm 0.00 in0.0 mm
12:30 PM 55.0°F12.8°C 32.3°F0.2°C 42% 3.5 mph ENE5.6 kmh ENE 5.8 mph9.3 kmh 26.54 in898.7 mb - 0.00 in0.0 mm 0.00 in0.0 mm
12:35 PM 55.0°F12.8°C 33.5°F0.8°C 44% 3.5 mph NE5.6 kmh NE 5.8 mph9.3 kmh 26.53 in898.4 mb - 0.00 in0.0 mm 0.00 in0.0 mm
12:40 PM 55.0°F12.8°C 34.0°F1.1°C 45% 3.5 mph N5.6 kmh N 3.5 mph5.6 kmh 26.53 in898.4 mb - 0.00 in0.0 mm 0.00 in0.0 mm
12:45 PM 55.0°F12.8°C 31.7°F-0.2°C 41% 3.5 mph 5.6 kmh 5.8 mph9.3 kmh 26.53 in898.4 mb - 0.00 in0.0 mm 0.00 in0.0 mm
12:50 PM 55.0°F12.8°C 32.3°F0.2°C 42% 2.3 mph ENE3.7 kmh ENE 3.5 mph5.6 kmh 26.53 in898.4 mb - 0.00 in0.0 mm 0.00 in0.0 mm
12:55 PM 56.0°F13.3°C 34.4°F1.3°C 44% 2.3 mph NNE3.7 kmh NNE 3.5 mph5.6 kmh 26.53 in898.4 mb - 0.00 in0.0 mm 0.00 in0.0 mm
01:00 PM 56.0°F13.3°C 33.8°F1.0°C 43% 3.5 mph NNE5.6 kmh NNE 3.5 mph5.6 kmh 26.52 in898.1 mb - 0.00 in0.0 mm 0.00 in0.0 mm
01:10 PM 57.0°F13.9°C 34.1°F1.2°C 42% 3.5 mph ENE5.6 kmh ENE 3.5 mph5.6 kmh 26.52 in898.1 mb - 0.00 in0.0 mm 0.00 in0.0 mm
01:15 PM 57.0°F13.9°C 31.6°F-0.2°C 38% 3.5 mph N5.6 kmh N 5.8 mph9.3 kmh 26.51 in897.7 mb - 0.00 in0.0 mm 0.00 in0.0 mm
01:20 PM 58.0°F14.4°C 34.4°F1.3°C 41% 1.2 mph NNE1.9 kmh NNE 2.3 mph3.7 kmh 26.51 in897.7 mb - 0.00 in0.0 mm 0.00 in0.0 mm
01:25 PM 57.0°F13.9°C 32.9°F0.5°C 40% 3.5 mph NNE5.6 kmh NNE 3.5 mph5.6 kmh 26.51 in897.7 mb - 0.00 in0.0 mm 0.00 in0.0 mm
01:30 PM 57.0°F13.9°C 34.7°F1.5°C 43% 2.3 mph E3.7 kmh E 3.5 mph5.6 kmh 26.52 in898.1 mb - 0.00 in0.0 mm 0.00 in0.0 mm
01:35 PM 57.0°F13.9°C 35.3°F1.8°C 44% 2.3 mph ESE3.7 kmh ESE 3.5 mph5.6 kmh 26.52 in898.1 mb - 0.00 in0.0 mm 0.00 in0.0 mm
01:40 PM 59.0°F15.0°C 35.9°F2.2°C 42% 2.3 mph N3.7 kmh N 3.5 mph5.6 kmh 26.51 in897.7 mb - 0.00 in0.0 mm 0.00 in0.0 mm
01:45 PM 60.0°F15.6°C 34.3°F1.3°C 38% 1.2 mph NNE1.9 kmh NNE 2.3 mph3.7 kmh 26.51 in897.7 mb - 0.00 in0.0 mm 0.00 in0.0 mm
01:50 PM 59.0°F15.0°C 34.7°F1.5°C 40% 2.3 mph N3.7 kmh N 2.3 mph3.7 kmh 26.51 in897.7 mb - 0.00 in0.0 mm 0.00 in0.0 mm
01:55 PM 59.0°F15.0°C 34.1°F1.2°C 39% 3.5 mph W5.6 kmh W 6.9 mph11.1 kmh 26.50 in897.4 mb - 0.00 in0.0 mm 0.00 in0.0 mm
02:00 PM 59.0°F15.0°C 34.1°F1.2°C 39% 3.5 mph NW5.6 kmh NW 6.9 mph11.1 kmh 26.50 in897.4 mb - 0.00 in0.0 mm 0.00 in0.0 mm
02:10 PM 58.0°F14.4°C 33.8°F1.0°C 40% 3.5 mph NNE5.6 kmh NNE 3.5 mph5.6 kmh 26.50 in897.4 mb - 0.00 in0.0 mm 0.00 in0.0 mm
02:15 PM 59.0°F15.0°C 34.7°F1.5°C 40% 3.5 mph N5.6 kmh N 3.5 mph5.6 kmh 26.50 in897.4 mb - 0.00 in0.0 mm 0.00 in0.0 mm
02:20 PM 59.0°F15.0°C 35.3°F1.8°C 41% 2.3 mph N3.7 kmh N 2.3 mph3.7 kmh 26.50 in897.4 mb - 0.00 in0.0 mm 0.00 in0.0 mm
02:25 PM 58.0°F14.4°C 33.8°F1.0°C 40% 3.5 mph N5.6 kmh N 3.5 mph5.6 kmh 26.50 in897.4 mb - 0.00 in0.0 mm 0.00 in0.0 mm
02:30 PM 58.3°F14.6°C 34.1°F1.2°C 40% 3.5 mph NE5.6 kmh NE 8.1 mph13.0 kmh 26.50 in897.4 mb - 0.00 in0.0 mm 0.00 in0.0 mm
02:35 PM 59.0°F15.0°C 34.1°F1.2°C 39% 3.5 mph E5.6 kmh E 8.1 mph13.0 kmh 26.51 in897.7 mb - 0.00 in0.0 mm 0.00 in0.0 mm
02:40 PM 60.0°F15.6°C 35.0°F1.7°C 39% 3.5 mph NNE5.6 kmh NNE 3.5 mph5.6 kmh 26.50 in897.4 mb - 0.00 in0.0 mm 0.00 in0.0 mm
02:45 PM 59.0°F15.0°C 32.7°F0.4°C 37% 3.5 mph N5.6 kmh N 5.8 mph9.3 kmh 26.50 in897.4 mb - 0.00 in0.0 mm 0.00 in0.0 mm
02:50 PM 60.0°F15.6°C 35.0°F1.7°C 39% 2.3 mph N3.7 kmh N 3.5 mph5.6 kmh 26.50 in897.4 mb - 0.00 in0.0 mm 0.00 in0.0 mm
02:55 PM 59.0°F15.0°C 32.1°F0.1°C 36% 4.6 mph NNE7.4 kmh NNE 8.1 mph13.0 kmh 26.49 in897.1 mb - 0.00 in0.0 mm 0.00 in0.0 mm
03:00 PM 58.6°F14.8°C 33.0°F0.6°C 38% 4.6 mph NNE7.4 kmh NNE 8.1 mph13.0 kmh 26.49 in897.1 mb - 0.00 in0.0 mm 0.00 in0.0 mm
03:10 PM 59.0°F15.0°C 34.1°F1.2°C 39% 1.2 mph NE1.9 kmh NE 2.3 mph3.7 kmh 26.49 in897.1 mb - 0.00 in0.0 mm 0.00 in0.0 mm
03:15 PM 57.0°F13.9°C 32.9°F0.5°C 40% 3.5 mph NE5.6 kmh NE 3.5 mph5.6 kmh 26.50 in897.4 mb - 0.00 in0.0 mm 0.00 in0.0 mm
03:20 PM 58.0°F14.4°C 33.8°F1.0°C 40% 2.3 mph NE3.7 kmh NE 3.5 mph5.6 kmh 26.49 in897.1 mb - 0.00 in0.0 mm 0.00 in0.0 mm
03:25 PM 58.0°F14.4°C 34.4°F1.3°C 41% 2.3 mph NNE3.7 kmh NNE 3.5 mph5.6 kmh 26.50 in897.4 mb - 0.00 in0.0 mm 0.00 in0.0 mm
03:30 PM 58.0°F14.4°C 34.4°F1.3°C 41% 2.3 mph NNE3.7 kmh NNE 3.5 mph5.6 kmh 26.50 in897.4 mb - 0.00 in0.0 mm 0.00 in0.0 mm
03:35 PM 58.0°F14.4°C 34.4°F1.3°C 41% 3.5 mph NNE5.6 kmh NNE 3.5 mph5.6 kmh 26.49 in897.1 mb - 0.00 in0.0 mm 0.00 in0.0 mm
03:40 PM 59.0°F15.0°C 34.1°F1.2°C 39% 3.5 mph NE5.6 kmh NE 5.8 mph9.3 kmh 26.49 in897.1 mb - 0.00 in0.0 mm 0.00 in0.0 mm
03:45 PM 58.0°F14.4°C 33.2°F0.7°C 39% 4.6 mph NE7.4 kmh NE 8.1 mph13.0 kmh 26.49 in897.1 mb - 0.00 in0.0 mm 0.00 in0.0 mm
03:50 PM 58.0°F14.4°C 34.4°F1.3°C 41% 2.3 mph NE3.7 kmh NE 3.5 mph5.6 kmh 26.49 in897.1 mb - 0.00 in0.0 mm 0.00 in0.0 mm
03:55 PM 57.0°F13.9°C 33.5°F0.8°C 41% 2.3 mph NNE3.7 kmh NNE 3.5 mph5.6 kmh 26.49 in897.1 mb - 0.00 in0.0 mm 0.00 in0.0 mm
04:00 PM 57.2°F14.0°C 33.7°F0.9°C 41% 2.3 mph NNE3.7 kmh NNE 3.5 mph5.6 kmh 26.49 in897.1 mb - 0.00 in0.0 mm 0.00 in0.0 mm
04:10 PM 58.0°F14.4°C 34.4°F1.3°C 41% 3.5 mph N5.6 kmh N 3.5 mph5.6 kmh 26.48 in896.7 mb - 0.00 in0.0 mm 0.00 in0.0 mm
04:15 PM 58.0°F14.4°C 33.2°F0.7°C 39% 3.5 mph NNE5.6 kmh NNE 3.5 mph5.6 kmh 26.49 in897.1 mb - 0.00 in0.0 mm 0.00 in0.0 mm
04:20 PM 59.0°F15.0°C 35.9°F2.2°C 42% 2.3 mph NNE3.7 kmh NNE 2.3 mph3.7 kmh 26.49 in897.1 mb - 0.00 in0.0 mm 0.00 in0.0 mm
04:25 PM 59.0°F15.0°C 35.3°F1.8°C 41% 2.3 mph NNE3.7 kmh NNE 3.5 mph5.6 kmh 26.49 in897.1 mb - 0.00 in0.0 mm 0.00 in0.0 mm
04:30 PM 59.0°F15.0°C 34.1°F1.2°C 39% 2.3 mph NNE3.7 kmh NNE 3.5 mph5.6 kmh 26.49 in897.1 mb - 0.00 in0.0 mm 0.00 in0.0 mm
04:35 PM 58.0°F14.4°C 34.4°F1.3°C 41% 2.3 mph N3.7 kmh N 3.5 mph5.6 kmh 26.49 in897.1 mb - 0.00 in0.0 mm 0.00 in0.0 mm
04:40 PM 58.0°F14.4°C 33.2°F0.7°C 39% 2.3 mph NE3.7 kmh NE 3.5 mph5.6 kmh 26.49 in897.1 mb - 0.00 in0.0 mm 0.00 in0.0 mm
04:45 PM 56.0°F13.3°C 32.6°F0.3°C 41% 3.5 mph N5.6 kmh N 3.5 mph5.6 kmh 26.49 in897.1 mb - 0.00 in0.0 mm 0.00 in0.0 mm
04:50 PM 56.0°F13.3°C 32.6°F0.3°C 41% 2.3 mph N3.7 kmh N 3.5 mph5.6 kmh 26.49 in897.1 mb - 0.00 in0.0 mm 0.00 in0.0 mm
04:55 PM 56.0°F13.3°C 33.2°F0.7°C 42% 1.2 mph N1.9 kmh N 2.3 mph3.7 kmh 26.49 in897.1 mb - 0.00 in0.0 mm 0.00 in0.0 mm
05:00 PM 57.0°F13.9°C 32.9°F0.5°C 40% 3.5 mph NE5.6 kmh NE 3.5 mph5.6 kmh 26.49 in897.1 mb - 0.00 in0.0 mm 0.00 in0.0 mm
05:10 PM 56.0°F13.3°C 33.8°F1.0°C 43% 1.2 mph N1.9 kmh N 2.3 mph3.7 kmh 26.50 in897.4 mb - 0.00 in0.0 mm 0.00 in0.0 mm
05:15 PM 55.6°F13.1°C 33.5°F0.8°C 43% 1.2 mph N1.9 kmh N 2.3 mph3.7 kmh 26.50 in897.4 mb - 0.00 in0.0 mm 0.00 in0.0 mm
05:20 PM 55.0°F12.8°C 32.9°F0.5°C 43% 1.2 mph N1.9 kmh N 2.3 mph3.7 kmh 26.50 in897.4 mb - 0.00 in0.0 mm 0.00 in0.0 mm
05:25 PM 55.0°F12.8°C 34.0°F1.1°C 45% Calm Calm 1.2 mph1.9 kmh 26.49 in897.1 mb - 0.00 in0.0 mm 0.00 in0.0 mm
05:30 PM 55.0°F12.8°C 34.0°F1.1°C 45% 2.3 mph NNE3.7 kmh NNE 2.3 mph3.7 kmh 26.50 in897.4 mb - 0.00 in0.0 mm 0.00 in0.0 mm
05:35 PM 55.0°F12.8°C 33.5°F0.8°C 44% 3.5 mph NNE5.6 kmh NNE 3.5 mph5.6 kmh 26.50 in897.4 mb - 0.00 in0.0 mm 0.00 in0.0 mm
05:40 PM 54.0°F12.2°C 32.6°F0.3°C 44% 1.2 mph N1.9 kmh N 3.5 mph5.6 kmh 26.50 in897.4 mb - 0.00 in0.0 mm 0.00 in0.0 mm
05:45 PM 54.0°F12.2°C 32.6°F0.3°C 44% 1.2 mph N1.9 kmh N 3.5 mph5.6 kmh 26.50 in897.4 mb - 0.00 in0.0 mm 0.00 in0.0 mm
05:50 PM 54.0°F12.2°C 33.1°F0.6°C 45% 2.3 mph N3.7 kmh N 2.3 mph3.7 kmh 26.50 in897.4 mb - 0.00 in0.0 mm 0.00 in0.0 mm
05:55 PM 53.0°F11.7°C 32.8°F0.4°C 46% 3.5 mph 5.6 kmh 3.5 mph5.6 kmh 26.51 in897.7 mb - 0.00 in0.0 mm 0.00 in0.0 mm
06:00 PM 53.0°F11.7°C 32.8°F0.4°C 46% 1.2 mph N1.9 kmh N 1.2 mph1.9 kmh 26.51 in897.7 mb - 0.00 in0.0 mm 0.00 in0.0 mm
06:10 PM 52.5°F11.4°C 32.8°F0.4°C 47% 1.2 mph N1.9 kmh N 2.3 mph3.7 kmh 26.50 in897.4 mb - 0.00 in0.0 mm 0.00 in0.0 mm
06:15 PM 52.0°F11.1°C 32.9°F0.5°C 48% 1.2 mph N1.9 kmh N 2.3 mph3.7 kmh 26.50 in897.4 mb - 0.00 in0.0 mm 0.00 in0.0 mm
06:20 PM 52.0°F11.1°C 33.4°F0.8°C 49% 1.2 mph N1.9 kmh N 2.3 mph3.7 kmh 26.51 in897.7 mb - 0.00 in0.0 mm 0.00 in0.0 mm
06:25 PM 52.0°F11.1°C 33.4°F0.8°C 49% Calm Calm -- 26.52 in898.1 mb - 0.00 in0.0 mm 0.00 in0.0 mm
06:30 PM 52.0°F11.1°C 32.9°F0.5°C 48% Calm Calm 1.2 mph1.9 kmh 26.52 in898.1 mb - 0.00 in0.0 mm 0.00 in0.0 mm
06:35 PM 51.4°F10.8°C 32.9°F0.5°C 49% Calm Calm 2.3 mph3.7 kmh 26.52 in898.1 mb - 0.00 in0.0 mm 0.00 in0.0 mm
06:40 PM 51.0°F10.6°C 33.0°F0.6°C 50% 1.2 mph N1.9 kmh N 2.3 mph3.7 kmh 26.52 in898.1 mb - 0.00 in0.0 mm 0.00 in0.0 mm
06:45 PM 51.0°F10.6°C 33.5°F0.8°C 51% 1.2 mph N1.9 kmh N 1.2 mph1.9 kmh 26.52 in898.1 mb - 0.00 in0.0 mm 0.00 in0.0 mm
06:50 PM 50.0°F10.0°C 33.1°F0.6°C 52% Calm Calm -- 26.52 in898.1 mb - 0.00 in0.0 mm 0.00 in0.0 mm
06:55 PM 50.0°F10.0°C 32.6°F0.3°C 51% Calm Calm -- 26.53 in898.4 mb - 0.00 in0.0 mm 0.00 in0.0 mm
07:00 PM 50.0°F10.0°C 32.6°F0.3°C 51% Calm Calm -- 26.52 in898.1 mb - 0.00 in0.0 mm 0.00 in0.0 mm
07:10 PM 50.0°F10.0°C 33.5°F0.8°C 53% Calm Calm -- 26.53 in898.4 mb - 0.00 in0.0 mm 0.00 in0.0 mm
07:15 PM 49.0°F9.4°C 32.1°F0.1°C 52% Calm Calm -- 26.53 in898.4 mb - 0.00 in0.0 mm 0.00 in0.0 mm
07:20 PM 50.0°F10.0°C 33.1°F0.6°C 52% Calm Calm -- 26.54 in898.7 mb - 0.00 in0.0 mm 0.00 in0.0 mm
07:25 PM 50.0°F10.0°C 34.0°F1.1°C 54% Calm Calm -- 26.54 in898.7 mb - 0.00 in0.0 mm 0.00 in0.0 mm
07:30 PM 50.0°F10.0°C 34.9°F1.6°C 56% Calm Calm -- 26.54 in898.7 mb - 0.00 in0.0 mm 0.00 in0.0 mm
07:35 PM 49.0°F9.4°C 33.1°F0.6°C 54% Calm Calm -- 26.54 in898.7 mb - 0.00 in0.0 mm 0.00 in0.0 mm
07:40 PM 49.0°F9.4°C 32.1°F0.1°C 52% 1.2 mph N1.9 kmh N 1.2 mph1.9 kmh 26.54 in898.7 mb - 0.00 in0.0 mm 0.00 in0.0 mm
07:45 PM 49.0°F9.4°C 33.5°F0.8°C 55% Calm Calm -- 26.54 in898.7 mb - 0.00 in0.0 mm 0.00 in0.0 mm
07:50 PM 48.3°F9.1°C 34.2°F1.2°C 58% Calm Calm -- 26.54 in898.7 mb - 0.00 in0.0 mm 0.00 in0.0 mm
07:55 PM 48.0°F8.9°C 34.8°F1.6°C 60% Calm Calm -- 26.54 in898.7 mb - 0.00 in0.0 mm 0.00 in0.0 mm
08:00 PM 47.0°F8.3°C 31.7°F-0.2°C 55% Calm Calm 1.2 mph1.9 kmh 26.55 in899.1 mb - 0.00 in0.0 mm 0.00 in0.0 mm
08:10 PM 48.0°F8.9°C 33.0°F0.6°C 56% 2.3 mph N3.7 kmh N 2.3 mph3.7 kmh 26.55 in899.1 mb - 0.00 in0.0 mm 0.00 in0.0 mm
08:15 PM 47.0°F8.3°C 33.0°F0.6°C 58% Calm Calm -- 26.56 in899.4 mb - 0.00 in0.0 mm 0.00 in0.0 mm
08:20 PM 47.0°F8.3°C 33.0°F0.6°C 58% Calm Calm -- 26.56 in899.4 mb - 0.00 in0.0 mm 0.00 in0.0 mm
08:25 PM 47.0°F8.3°C 33.4°F0.8°C 59% Calm Calm -- 26.57 in899.8 mb - 0.00 in0.0 mm 0.00 in0.0 mm
08:30 PM 47.0°F8.3°C 35.0°F1.7°C 63% Calm Calm -- 26.56 in899.4 mb - 0.00 in0.0 mm 0.00 in0.0 mm
08:35 PM 46.0°F7.8°C 34.9°F1.6°C 65% Calm Calm -- 26.57 in899.8 mb - 0.00 in0.0 mm 0.00 in0.0 mm
08:40 PM 45.0°F7.2°C 33.9°F1.1°C 65% Calm Calm -- 26.57 in899.8 mb - 0.00 in0.0 mm 0.00 in0.0 mm
08:45 PM 45.0°F7.2°C 35.4°F1.9°C 69% Calm Calm -- 26.57 in899.8 mb - 0.00 in0.0 mm 0.00 in0.0 mm
08:50 PM 44.8°F7.1°C 35.3°F1.8°C 69% Calm Calm -- 26.57 in899.8 mb - 0.00 in0.0 mm 0.00 in0.0 mm
08:55 PM 44.0°F6.7°C 33.7°F0.9°C 67% Calm Calm -- 26.58 in900.1 mb - 0.00 in0.0 mm 0.00 in0.0 mm
09:00 PM 44.0°F6.7°C 35.2°F1.8°C 71% Calm Calm -- 26.58 in900.1 mb - 0.00 in0.0 mm 0.00 in0.0 mm
09:10 PM 44.0°F6.7°C 34.5°F1.4°C 69% Calm Calm -- 26.58 in900.1 mb - 0.00 in0.0 mm 0.00 in0.0 mm
09:15 PM 43.0°F6.1°C 33.2°F0.7°C 68% Calm Calm -- 26.59 in900.4 mb - 0.00 in0.0 mm 0.00 in0.0 mm
09:20 PM 43.0°F6.1°C 33.9°F1.1°C 70% Calm Calm -- 26.59 in900.4 mb - 0.00 in0.0 mm 0.00 in0.0 mm
09:25 PM 43.0°F6.1°C 34.6°F1.4°C 72% Calm Calm -- 26.59 in900.4 mb - 0.00 in0.0 mm 0.00 in0.0 mm
09:30 PM 42.0°F5.6°C 34.3°F1.3°C 74% Calm Calm -- 26.59 in900.4 mb - 0.00 in0.0 mm 0.00 in0.0 mm
09:35 PM 43.0°F6.1°C 34.2°F1.2°C 71% Calm Calm -- 26.59 in900.4 mb - 0.00 in0.0 mm 0.00 in0.0 mm
09:40 PM 42.0°F5.6°C 34.6°F1.4°C 75% Calm Calm -- 26.59 in900.4 mb - 0.00 in0.0 mm 0.00 in0.0 mm
09:45 PM 42.0°F5.6°C 35.3°F1.8°C 77% Calm Calm -- 26.59 in900.4 mb - 0.00 in0.0 mm 0.00 in0.0 mm
09:50 PM 42.0°F5.6°C 33.6°F0.9°C 72% Calm Calm -- 26.60 in900.8 mb - 0.00 in0.0 mm 0.00 in0.0 mm
09:55 PM 42.0°F5.6°C 33.6°F0.9°C 72% Calm Calm -- 26.60 in900.8 mb - 0.00 in0.0 mm 0.00 in0.0 mm
10:00 PM 42.0°F5.6°C 34.0°F1.1°C 73% Calm Calm -- 26.59 in900.4 mb - 0.00 in0.0 mm 0.00 in0.0 mm
10:10 PM 41.0°F5.0°C 33.7°F0.9°C 75% Calm Calm -- 26.59 in900.4 mb - 0.00 in0.0 mm 0.00 in0.0 mm
10:15 PM 41.0°F5.0°C 33.3°F0.7°C 74% Calm Calm -- 26.60 in900.8 mb - 0.00 in0.0 mm 0.00 in0.0 mm
10:20 PM 41.0°F5.0°C 33.7°F0.9°C 75% Calm Calm -- 26.59 in900.4 mb - 0.00 in0.0 mm 0.00 in0.0 mm
10:25 PM 41.0°F5.0°C 34.3°F1.3°C 77% Calm Calm -- 26.59 in900.4 mb - 0.00 in0.0 mm 0.00 in0.0 mm
10:30 PM 41.0°F5.0°C 34.3°F1.3°C 77% Calm Calm -- 26.59 in900.4 mb - 0.00 in0.0 mm 0.00 in0.0 mm
10:35 PM 40.0°F4.4°C 32.7°F0.4°C 75% Calm Calm -- 26.60 in900.8 mb - 0.00 in0.0 mm 0.00 in0.0 mm
10:40 PM 40.0°F4.4°C 32.4°F0.2°C 74% Calm Calm -- 26.60 in900.8 mb - 0.00 in0.0 mm 0.00 in0.0 mm
10:45 PM 40.0°F4.4°C 32.7°F0.4°C 75% Calm Calm -- 26.59 in900.4 mb - 0.00 in0.0 mm 0.00 in0.0 mm
10:50 PM 40.0°F4.4°C 32.4°F0.2°C 74% Calm Calm -- 26.60 in900.8 mb - 0.00 in0.0 mm 0.00 in0.0 mm
10:55 PM 39.0°F3.9°C 32.1°F0.1°C 76% Calm Calm -- 26.60 in900.8 mb - 0.00 in0.0 mm 0.00 in0.0 mm
11:00 PM 39.0°F3.9°C 31.7°F-0.2°C 75% Calm Calm -- 26.60 in900.8 mb - 0.00 in0.0 mm 0.00 in0.0 mm
11:10 PM 39.0°F3.9°C 32.1°F0.1°C 76% Calm Calm -- 26.60 in900.8 mb - 0.00 in0.0 mm 0.00 in0.0 mm
11:15 PM 39.0°F3.9°C 32.4°F0.2°C 77% Calm Calm -- 26.60 in900.8 mb - 0.00 in0.0 mm 0.00 in0.0 mm
11:20 PM 39.0°F3.9°C 32.4°F0.2°C 77% Calm Calm -- 26.59 in900.4 mb - 0.00 in0.0 mm 0.00 in0.0 mm
11:25 PM 39.0°F3.9°C 32.7°F0.4°C 78% Calm Calm -- 26.60 in900.8 mb - 0.00 in0.0 mm 0.00 in0.0 mm
11:30 PM 38.0°F3.3°C 32.7°F0.4°C 81% Calm Calm -- 26.59 in900.4 mb - 0.00 in0.0 mm 0.00 in0.0 mm
11:35 PM 38.2°F3.4°C 32.6°F0.3°C 80% Calm Calm -- 26.59 in900.4 mb - 0.00 in0.0 mm 0.00 in0.0 mm
11:40 PM 39.0°F3.9°C 32.7°F0.4°C 78% Calm Calm -- 26.60 in900.8 mb - 0.00 in0.0 mm 0.00 in0.0 mm
11:45 PM 39.0°F3.9°C 32.4°F0.2°C 77% Calm Calm -- 26.60 in900.8 mb - 0.00 in0.0 mm 0.00 in0.0 mm
11:50 PM 39.0°F3.9°C 32.7°F0.4°C 78% Calm Calm -- 26.61 in901.1 mb - 0.00 in0.0 mm 0.00 in0.0 mm
11:55 PM 39.0°F3.9°C 32.4°F0.2°C 77% Calm Calm -- 26.60 in900.8 mb - 0.00 in0.0 mm 0.00 in0.0 mm